Time;durP1;ratioP1;P1;durP2;ratioP2;P2;SDS_P1;SDS_P2;PMS_P1;PMS_P2;Temp;Humidity;BMP_temperature;BMP_pressure;BME280_temperature;BME280_humidity;BME280_pressure;Samples;Min_cycle;Max_cycle;Signal;HPM_P1;HPM_P2
2021/12/26 00:07:50;;;;;;;3.25;1.95;;;;;;;21.03;nan;99808.09;20388466;28;101813;-59
2021/12/26 00:17:51;;;;;;;2.35;1.92;;;;;;;21.00;nan;99800.47;20394780;28;101424;-58
2021/12/26 00:27:51;;;;;;;2.63;1.80;;;;;;;20.98;nan;99801.56;20384550;28;102324;-58
2021/12/26 00:37:52;;;;;;;1.85;1.60;;;;;;;20.92;nan;99813.44;20446262;28;102039;-60
2021/12/26 00:47:53;;;;;;;2.20;1.80;;;;;;;20.89;nan;99816.34;20394237;28;102780;-58
2021/12/26 00:57:56;;;;;;;2.13;1.58;;;;;;;20.87;nan;99813.84;20389623;28;102067;-60
2021/12/26 01:08:02;;;;;;;1.83;1.63;;;;;;;20.83;nan;99820.31;20388235;28;99260;-59
2021/12/26 01:18:03;;;;;;;2.33;1.75;;;;;;;20.81;nan;99819.59;20405077;28;102284;-59
2021/12/26 01:28:06;;;;;;;2.63;1.77;;;;;;;20.77;nan;99819.03;20386234;28;99579;-59
2021/12/26 01:38:10;;;;;;;2.77;1.80;;;;;;;20.76;nan;99833.19;20387318;28;101239;-59
2021/12/26 01:48:13;;;;;;;2.22;1.58;;;;;;;20.71;nan;99835.31;20410982;28;102172;-61
2021/12/26 01:58:22;;;;;;;1.67;1.38;;;;;;;20.70;nan;99830.19;20386349;28;103152;-59
2021/12/26 02:08:23;;;;;;;2.17;1.42;;;;;;;20.66;nan;99823.53;20383152;28;97697;-59
2021/12/26 02:18:25;;;;;;;1.85;1.40;;;;;;;20.64;nan;99807.84;20391271;28;101128;-58
2021/12/26 02:28:27;;;;;;;2.42;1.70;;;;;;;20.60;nan;99799.41;20403111;28;100861;-59
2021/12/26 02:38:28;;;;;;;2.40;1.57;;;;;;;20.59;nan;99810.88;20420718;28;103164;-59
2021/12/26 02:48:28;;;;;;;1.77;1.45;;;;;;;20.56;nan;99815.56;20379861;28;102535;-59
2021/12/26 02:58:29;;;;;;;2.17;1.40;;;;;;;20.54;nan;99817.50;20401379;28;99141;-58
2021/12/26 03:08:31;;;;;;;1.92;1.30;;;;;;;20.52;nan;99832.56;20382441;28;102095;-59
2021/12/26 03:18:33;;;;;;;1.50;1.27;;;;;;;20.48;nan;99827.56;20387096;28;98097;-60
2021/12/26 03:28:34;;;;;;;1.20;1.07;;;;;;;20.45;nan;99833.06;20384141;28;101764;-59
2021/12/26 03:38:36;;;;;;;1.50;1.20;;;;;;;20.42;nan;99825.44;20429068;28;98364;-58
2021/12/26 03:48:37;;;;;;;1.70;1.17;;;;;;;20.40;nan;99819.47;20405260;28;101179;-59
2021/12/26 03:58:42;;;;;;;1.85;1.10;;;;;;;20.39;nan;99825.69;20400856;28;101950;-59
2021/12/26 04:08:42;;;;;;;1.02;0.88;;;;;;;20.38;nan;99815.31;20397414;28;101862;-60
2021/12/26 04:18:43;;;;;;;1.10;0.90;;;;;;;20.34;nan;99809.47;20392576;28;100553;-59
2021/12/26 04:28:45;;;;;;;1.30;1.20;;;;;;;20.34;nan;99819.16;20396068;28;99520;-58
2021/12/26 04:38:46;;;;;;;1.45;1.10;;;;;;;20.33;nan;99831.47;20397272;28;99542;-59
2021/12/26 04:48:48;;;;;;;1.58;1.10;;;;;;;20.29;nan;99841.38;20440811;28;100647;-60
2021/12/26 04:58:51;;;;;;;2.00;1.27;;;;;;;20.27;nan;99853.81;20396253;28;99622;-59
2021/12/26 05:08:51;;;;;;;1.20;1.07;;;;;;;20.26;nan;99851.31;20390767;28;101578;-58
2021/12/26 05:18:51;;;;;;;2.78;1.90;;;;;;;20.36;nan;99859.28;20391183;28;99535;-59
2021/12/26 05:28:52;;;;;;;4.28;3.50;;;;;;;20.50;nan;99879.22;20396868;28;101921;-59
2021/12/26 05:38:53;;;;;;;4.07;2.97;;;;;;;20.60;nan;99870.44;20392956;28;106273;-60
2021/12/26 05:48:53;;;;;;;4.43;3.55;;;;;;;20.66;nan;99879.59;20392537;28;102751;-59
2021/12/26 05:58:54;;;;;;;6.50;4.03;;;;;;;20.76;nan;99891.06;20393899;28;99488;-59
2021/12/26 06:08:54;;;;;;;5.13;3.65;;;;;;;20.82;nan;99904.66;20388701;28;103805;-59
2021/12/26 06:18:57;;;;;;;4.65;3.60;;;;;;;20.87;nan;99915.63;20390400;28;101320;-60
2021/12/26 06:28:57;;;;;;;5.60;4.13;;;;;;;20.94;nan;99927.31;20384773;28;98767;-59
2021/12/26 06:38:58;;;;;;;7.45;5.57;;;;;;;21.00;nan;99933.88;20406634;28;103844;-59
2021/12/26 06:48:59;;;;;;;12.35;7.00;;;;;;;21.06;nan;99946.50;20395193;28;100883;-58
2021/12/26 06:58:59;;;;;;;9.10;6.13;;;;;;;21.20;nan;99955.88;20401226;28;102075;-59
2021/12/26 07:09:00;;;;;;;12.70;7.97;;;;;;;21.23;nan;99959.09;20398580;28;106146;-59
2021/12/26 07:19:00;;;;;;;8.50;5.22;;;;;;;21.27;nan;99960.47;20411391;28;100978;-60
2021/12/26 07:29:01;;;;;;;10.27;6.05;;;;;;;21.39;nan;99968.31;20409968;28;104466;-60
2021/12/26 07:39:03;;;;;;;8.75;6.95;;;;;;;21.50;nan;99970.06;20424464;28;102723;-59
2021/12/26 07:49:04;;;;;;;11.10;7.20;;;;;;;21.49;nan;99965.75;20437103;28;100342;-59
2021/12/26 07:59:05;;;;;;;8.52;7.00;;;;;;;21.50;nan;99991.94;20427091;28;98982;-58
2021/12/26 08:09:07;;;;;;;13.23;6.80;;;;;;;21.52;nan;99999.72;20415681;28;99458;-58
2021/12/26 08:19:09;;;;;;;10.77;7.00;;;;;;;21.50;nan;100004.28;20427860;28;99606;-59
2021/12/26 08:29:10;;;;;;;16.03;6.87;;;;;;;21.50;nan;99983.22;20422066;28;102963;-59
2021/12/26 08:39:11;;;;;;;10.68;5.53;;;;;;;21.30;nan;99992.81;20424543;28;98991;-59
2021/12/26 08:49:11;;;;;;;7.68;5.10;;;;;;;21.35;nan;100001.13;20426739;28;98829;-58
2021/12/26 08:59:12;;;;;;;18.27;11.52;;;;;;;21.39;nan;100008.66;20431498;28;97532;-60
2021/12/26 09:09:12;;;;;;;13.20;6.40;;;;;;;21.41;nan;100004.09;20429713;28;97981;-60
2021/12/26 09:19:13;;;;;;;9.65;5.43;;;;;;;21.41;nan;99995.34;20428728;28;98501;-59
2021/12/26 09:29:13;;;;;;;9.05;4.72;;;;;;;21.37;nan;99971.09;20424561;28;99651;-59
2021/12/26 09:39:14;;;;;;;5.93;4.30;;;;;;;21.33;nan;99979.38;20437668;28;106100;-59
2021/12/26 09:49:15;;;;;;;6.10;4.22;;;;;;;21.34;nan;99967.88;20430060;28;99114;-59
2021/12/26 09:59:19;;;;;;;6.20;4.40;;;;;;;21.41;nan;99979.53;20414668;28;97496;-59
2021/12/26 10:09:21;;;;;;;6.88;4.30;;;;;;;21.50;nan;99962.16;20413339;28;99089;-58
2021/12/26 10:19:21;;;;;;;4.15;2.70;;;;;;;19.19;nan;99955.03;20407127;28;98580;-58
2021/12/26 10:29:39;;;;;;;4.05;2.47;;;;;;;20.15;nan;99949.47;20419045;28;101800;-59
2021/12/26 10:39:45;;;;;;;6.38;2.70;;;;;;;20.66;nan;99950.63;20427598;28;98864;-59
2021/12/26 10:49:58;;;;;;;3.30;2.55;;;;;;;20.98;nan;99935.78;20399701;28;98579;-58
2021/12/26 11:00:05;;;;;;;;;;;;;;;21.23;nan;99935.38;20425733;28;98540;-59
2021/12/26 11:10:12;;;;;;;2.67;2.22;;;;;;;21.37;nan;99936.88;20434417;28;102246;-59
2021/12/26 11:20:32;;;;;;;4.03;2.20;;;;;;;21.50;nan;99936.63;20441291;28;99397;-59
2021/12/26 11:30:33;;;;;;;12.52;3.65;;;;;;;21.61;nan;99924.38;20435623;28;101473;-58
2021/12/26 11:40:35;;;;;;;7.43;3.85;;;;;;;21.69;nan;99922.75;20423749;28;99293;-59
2021/12/26 11:50:44;;;;;;;6.30;2.80;;;;;;;21.80;nan;99927.06;20432162;28;100328;-60
2021/12/26 12:00:51;;;;;;;6.30;3.00;;;;;;;21.91;nan;99952.50;20408072;28;98148;-59
2021/12/26 12:10:53;;;;;;;5.35;2.42;;;;;;;22.08;nan;99951.00;20405847;28;98838;-59
2021/12/26 12:21:20;;;;;;;5.80;2.40;;;;;;;22.20;nan;99959.63;20445331;28;100006;-59
2021/12/26 12:31:22;;;;;;;9.20;2.80;;;;;;;22.18;nan;99957.13;20421654;28;102096;-58
2021/12/26 12:41:38;;;;;;;8.82;2.65;;;;;;;22.20;nan;99941.16;20443306;28;98799;-58
2021/12/26 12:51:44;;;;;;;4.40;2.30;;;;;;;22.21;nan;99935.75;20383477;28;102886;-59
2021/12/26 13:01:54;;;;;;;4.30;2.20;;;;;;;22.20;nan;99914.78;20388572;28;99419;-59
2021/12/26 13:12:05;;;;;;;5.43;1.95;;;;;;;22.21;nan;99914.66;20413208;28;98991;-58
2021/12/26 13:22:06;;;;;;;6.32;2.15;;;;;;;22.23;nan;99904.81;20404999;28;99027;-59
2021/12/26 13:32:07;;;;;;;3.70;2.10;;;;;;;22.22;nan;99900.50;20377153;28;102715;-59
2021/12/26 13:42:09;;;;;;;3.83;2.05;;;;;;;22.22;nan;99902.31;20382313;28;101868;-59
2021/12/26 13:52:09;;;;;;;3.37;1.70;;;;;;;22.14;nan;99899.53;20397656;28;101797;-59
2021/12/26 14:02:11;;;;;;;3.33;1.90;;;;;;;22.07;nan;99909.81;20377947;28;100670;-58
2021/12/26 14:12:36;;;;;;;2.23;1.53;;;;;;;22.01;nan;99924.34;20423931;28;101071;-57
2021/12/26 14:22:37;;;;;;;2.83;1.70;;;;;;;21.93;nan;99931.28;20383994;28;100172;-59
2021/12/26 14:32:40;;;;;;;3.42;1.73;;;;;;;21.90;nan;99938.47;20374116;28;101669;-57
2021/12/26 14:42:44;;;;;;;5.90;1.65;;;;;;;21.83;nan;99936.50;20407429;28;99586;-60
2021/12/26 14:52:51;;;;;;;2.65;1.60;;;;;;;21.75;nan;99945.91;20432166;28;101107;-60
2021/12/26 15:02:54;;;;;;;4.78;1.63;;;;;;;21.72;nan;99977.78;20403809;28;98533;-60
2021/12/26 15:12:56;;;;;;;3.40;1.40;;;;;;;21.71;nan;99985.84;20408013;28;97901;-60
2021/12/26 15:23:10;;;;;;;3.45;1.63;;;;;;;21.64;nan;99982.91;20398717;28;98575;-59
2021/12/26 15:33:11;;;;;;;2.80;1.45;;;;;;;21.70;nan;99992.06;20389276;28;105013;-58
2021/12/26 15:43:12;;;;;;;4.00;1.65;;;;;;;21.81;nan;100012.22;20422975;28;101120;-59
2021/12/26 15:53:13;;;;;;;2.35;1.60;;;;;;;21.90;nan;100011.44;20401801;28;98439;-59
2021/12/26 16:03:16;;;;;;;7.18;1.85;;;;;;;21.95;nan;100009.25;20387707;28;102126;-59
2021/12/26 16:13:18;;;;;;;2.25;1.52;;;;;;;22.01;nan;100002.63;20414121;28;102190;-60
2021/12/26 16:23:19;;;;;;;2.33;1.50;;;;;;;22.06;nan;100008.31;20452645;28;100900;-59
2021/12/26 16:33:21;;;;;;;3.38;1.83;;;;;;;22.11;nan;100002.66;20391019;28;99258;-59
2021/12/26 16:43:22;;;;;;;3.83;1.98;;;;;;;22.14;nan;100000.56;20390816;28;99979;-59
2021/12/26 16:53:23;;;;;;;3.50;1.70;;;;;;;22.17;nan;99991.56;20384945;28;98268;-59
2021/12/26 17:03:25;;;;;;;2.95;1.90;;;;;;;22.17;nan;100012.66;20391714;28;99628;-60
2021/12/26 17:13:31;;;;;;;2.42;1.80;;;;;;;22.18;nan;100015.16;20407539;28;97978;-60
2021/12/26 17:23:34;;;;;;;6.97;2.30;;;;;;;22.21;nan;100020.13;20413074;28;97816;-60
2021/12/26 17:33:36;;;;;;;4.22;2.17;;;;;;;22.30;nan;100018.53;20439972;28;102591;-59
2021/12/26 17:43:37;;;;;;;5.43;2.20;;;;;;;22.26;nan;100030.28;20481403;28;98947;-59
2021/12/26 17:53:38;;;;;;;6.25;2.55;;;;;;;22.26;nan;100032.09;20490907;28;99339;-60
2021/12/26 18:03:40;;;;;;;4.57;2.60;;;;;;;22.30;nan;100036.97;20486276;28;100249;-59
2021/12/26 18:13:40;;;;;;;8.13;3.40;;;;;;;22.27;nan;100049.59;20489215;28;102076;-60
2021/12/26 18:23:42;;;;;;;8.48;3.42;;;;;;;22.27;nan;100052.25;20491676;28;99375;-60
2021/12/26 18:33:42;;;;;;;9.82;4.00;;;;;;;22.25;nan;100048.91;20496279;28;98141;-59
2021/12/26 18:43:43;;;;;;;8.63;4.20;;;;;;;22.24;nan;100061.25;20493444;28;102190;-59
2021/12/26 18:53:45;;;;;;;8.27;4.00;;;;;;;22.21;nan;100064.16;20486889;28;100571;-60
2021/12/26 19:03:46;;;;;;;7.90;4.60;;;;;;;22.13;nan;100061.34;20488978;28;102471;-59
2021/12/26 19:13:46;;;;;;;7.93;4.93;;;;;;;22.05;nan;100060.19;20489732;28;98631;-60
2021/12/26 19:23:48;;;;;;;11.15;5.13;;;;;;;21.99;nan;100052.81;20505802;28;98607;-59
2021/12/26 19:33:50;;;;;;;11.90;5.43;;;;;;;21.98;nan;100061.69;20492202;28;98582;-59
2021/12/26 19:43:54;;;;;;;13.07;6.90;;;;;;;21.31;nan;100073.47;20482896;28;103806;-59
2021/12/26 19:53:58;;;;;;;;;;;;;;;21.27;nan;100076.34;20484631;28;103303;-59
2021/12/26 20:03:59;;;;;;;12.90;6.68;;;;;;;21.26;nan;100066.81;20503190;28;102624;-59
2021/12/26 20:14:00;;;;;;;13.68;6.25;;;;;;;21.30;nan;100072.66;20504001;28;105014;-60
2021/12/26 20:24:02;;;;;;;8.82;6.05;;;;;;;21.28;nan;100075.41;20507499;28;99400;-59
2021/12/26 20:34:03;;;;;;;10.85;6.20;;;;;;;21.25;nan;100088.84;20505609;28;101330;-59
2021/12/26 20:44:05;;;;;;;10.73;6.05;;;;;;;21.25;nan;100087.97;20503021;28;101437;-59
2021/12/26 20:54:09;;;;;;;8.60;5.35;;;;;;;21.22;nan;100098.78;20495744;28;101135;-59
2021/12/26 21:04:12;;;;;;;;;;;;;;;21.23;nan;100085.47;20494877;28;101891;-59
2021/12/26 21:14:14;;;;;;;11.00;5.57;;;;;;;21.15;nan;100080.00;20491194;27;97881;-59
2021/12/26 21:24:14;;;;;;;8.02;5.75;;;;;;;21.13;nan;100084.56;20497374;28;99136;-58
2021/12/26 21:34:15;;;;;;;7.65;5.22;;;;;;;21.06;nan;100071.06;20498387;28;98278;-59
2021/12/26 21:44:16;;;;;;;8.05;5.15;;;;;;;21.02;nan;100077.56;20488744;28;101716;-60
2021/12/26 21:54:16;;;;;;;9.23;5.45;;;;;;;20.98;nan;100075.28;20489795;28;99414;-59
2021/12/26 22:04:18;;;;;;;8.55;5.00;;;;;;;20.94;nan;100072.06;20491068;28;103040;-59
2021/12/26 22:14:19;;;;;;;7.68;4.85;;;;;;;20.91;nan;100061.78;20486254;28;98347;-60
2021/12/26 22:24:21;;;;;;;7.78;4.70;;;;;;;20.90;nan;100052.25;20491387;28;100066;-60
2021/12/26 22:34:21;;;;;;;12.23;5.30;;;;;;;20.86;nan;100056.91;20487984;28;101361;-59
2021/12/26 22:44:22;;;;;;;9.98;4.80;;;;;;;20.81;nan;100064.31;20491772;28;102989;-60
2021/12/26 22:54:22;;;;;;;8.25;5.20;;;;;;;20.76;nan;100050.72;20484184;28;98985;-59
2021/12/26 23:04:23;;;;;;;7.13;4.55;;;;;;;20.73;nan;100054.44;20487448;28;98607;-59
2021/12/26 23:14:25;;;;;;;6.72;4.75;;;;;;;20.70;nan;100053.81;20477194;28;98203;-59
2021/12/26 23:24:25;;;;;;;8.68;4.70;;;;;;;20.66;nan;100029.53;20481173;28;101175;-60
2021/12/26 23:34:26;;;;;;;7.68;4.75;;;;;;;20.61;nan;100000.97;20474807;28;101671;-59
2021/12/26 23:44:28;;;;;;;6.50;4.40;;;;;;;20.59;nan;99986.28;20481332;28;98651;-59
2021/12/26 23:54:29;;;;;;;7.00;4.63;;;;;;;20.55;nan;99980.44;20486050;28;97914;-59
